sensor_id;sensor_type;location;lat;lon;timestamp;pressure;altitude;pressure_sealevel;temperature;humidity
76762;BME280;65705;51.032;13.790;2023-09-19T00:00:30;99638.06;;;18.73;88.08
76762;BME280;65705;51.032;13.790;2023-09-19T00:02:58;99637.28;;;18.73;88.91
76762;BME280;65705;51.032;13.790;2023-09-19T00:05:27;99630.91;;;18.74;89.40
76762;BME280;65705;51.032;13.790;2023-09-19T00:07:56;99632.31;;;18.76;89.48
76762;BME280;65705;51.032;13.790;2023-09-19T00:10:25;99634.38;;;18.74;89.32
76762;BME280;65705;51.032;13.790;2023-09-19T00:12:53;99631.97;;;18.73;89.32
76762;BME280;65705;51.032;13.790;2023-09-19T00:15:23;99638.88;;;18.74;89.26
76762;BME280;65705;51.032;13.790;2023-09-19T00:17:48;99631.50;;;18.76;89.18
76762;BME280;65705;51.032;13.790;2023-09-19T00:20:18;99636.59;;;18.77;88.87
76762;BME280;65705;51.032;13.790;2023-09-19T00:22:44;99638.66;;;18.75;89.16
76762;BME280;65705;51.032;13.790;2023-09-19T00:25:11;99633.34;;;18.75;89.20
76762;BME280;65705;51.032;13.790;2023-09-19T00:27:41;99639.72;;;18.74;89.30
76762;BME280;65705;51.032;13.790;2023-09-19T00:30:08;99631.28;;;18.77;89.41
76762;BME280;65705;51.032;13.790;2023-09-19T00:32:40;99628.97;;;18.81;89.11
76762;BME280;65705;51.032;13.790;2023-09-19T00:35:07;99616.38;;;18.76;88.72
76762;BME280;65705;51.032;13.790;2023-09-19T00:37:36;99620.50;;;18.72;88.80
76762;BME280;65705;51.032;13.790;2023-09-19T00:40:03;99614.13;;;18.73;89.04
76762;BME280;65705;51.032;13.790;2023-09-19T00:42:31;99619.53;;;18.67;89.03
76762;BME280;65705;51.032;13.790;2023-09-19T00:44:57;99624.25;;;18.65;89.33
76762;BME280;65705;51.032;13.790;2023-09-19T00:47:23;99613.28;;;18.61;89.24
76762;BME280;65705;51.032;13.790;2023-09-19T00:49:48;99612.03;;;18.64;89.30
76762;BME280;65705;51.032;13.790;2023-09-19T00:52:18;99618.22;;;18.58;89.53
76762;BME280;65705;51.032;13.790;2023-09-19T00:54:49;99610.69;;;18.55;89.75
76762;BME280;65705;51.032;13.790;2023-09-19T00:57:16;99612.69;;;18.59;90.02
76762;BME280;65705;51.032;13.790;2023-09-19T00:59:43;99607.50;;;18.64;89.74
76762;BME280;65705;51.032;13.790;2023-09-19T01:02:09;99606.72;;;18.64;89.14
76762;BME280;65705;51.032;13.790;2023-09-19T01:04:36;99599.97;;;18.61;89.29
76762;BME280;65705;51.032;13.790;2023-09-19T01:07:03;99605.28;;;18.61;89.18
76762;BME280;65705;51.032;13.790;2023-09-19T01:09:29;99612.69;;;18.59;88.87
76762;BME280;65705;51.032;13.790;2023-09-19T01:12:02;99612.91;;;18.58;89.13
76762;BME280;65705;51.032;13.790;2023-09-19T01:14:38;99617.34;;;18.64;89.52
76762;BME280;65705;51.032;13.790;2023-09-19T01:22:16;99636.22;;;18.56;89.31
76762;BME280;65705;51.032;13.790;2023-09-19T01:30:56;99627.88;;;18.52;89.24
76762;BME280;65705;51.032;13.790;2023-09-19T01:33:24;99631.81;;;18.50;89.24
76762;BME280;65705;51.032;13.790;2023-09-19T01:35:52;99632.59;;;18.50;88.91
76762;BME280;65705;51.032;13.790;2023-09-19T01:38:19;99637.94;;;18.50;88.76
76762;BME280;65705;51.032;13.790;2023-09-19T01:40:57;99636.53;;;18.48;88.54
76762;BME280;65705;51.032;13.790;2023-09-19T01:43:42;99643.31;;;18.44;88.79
76762;BME280;65705;51.032;13.790;2023-09-19T01:46:24;99626.69;;;18.48;89.13
76762;BME280;65705;51.032;13.790;2023-09-19T01:51:25;99627.88;;;18.52;87.64
76762;BME280;65705;51.032;13.790;2023-09-19T01:54:18;99626.50;;;18.50;88.20
76762;BME280;65705;51.032;13.790;2023-09-19T01:56:56;99624.41;;;18.52;88.20
76762;BME280;65705;51.032;13.790;2023-09-19T01:59:34;99630.78;;;18.51;87.96
76762;BME280;65705;51.032;13.790;2023-09-19T02:02:01;99634.31;;;18.45;88.22
76762;BME280;65705;51.032;13.790;2023-09-19T02:04:29;99642.91;;;18.40;88.57
76762;BME280;65705;51.032;13.790;2023-09-19T02:06:56;99648.63;;;18.44;88.88
76762;BME280;65705;51.032;13.790;2023-09-19T02:09:24;99655.78;;;18.43;88.50
76762;BME280;65705;51.032;13.790;2023-09-19T02:11:50;99641.69;;;18.43;88.41
76762;BME280;65705;51.032;13.790;2023-09-19T02:14:16;99652.72;;;18.40;88.79
76762;BME280;65705;51.032;13.790;2023-09-19T02:16:42;99651.13;;;18.39;89.11
76762;BME280;65705;51.032;13.790;2023-09-19T02:19:08;99656.00;;;18.42;88.75
76762;BME280;65705;51.032;13.790;2023-09-19T02:21:33;99653.13;;;18.43;88.86
76762;BME280;65705;51.032;13.790;2023-09-19T02:24:00;99645.97;;;18.44;88.84
76762;BME280;65705;51.032;13.790;2023-09-19T02:26:25;99650.03;;;18.46;88.64
76762;BME280;65705;51.032;13.790;2023-09-19T02:28:52;99653.13;;;18.43;88.27
76762;BME280;65705;51.032;13.790;2023-09-19T02:31:18;99664.34;;;18.45;88.03
76762;BME280;65705;51.032;13.790;2023-09-19T02:33:45;99666.00;;;18.40;88.02
76762;BME280;65705;51.032;13.790;2023-09-19T02:36:11;99659.72;;;18.41;88.11
76762;BME280;65705;51.032;13.790;2023-09-19T02:38:38;99661.53;;;18.40;87.83
76762;BME280;65705;51.032;13.790;2023-09-19T02:41:03;99670.81;;;18.31;87.96
76762;BME280;65705;51.032;13.790;2023-09-19T02:43:29;99666.72;;;18.29;88.00
76762;BME280;65705;51.032;13.790;2023-09-19T02:45:55;99667.41;;;18.24;88.68
76762;BME280;65705;51.032;13.790;2023-09-19T02:48:22;99674.78;;;18.22;88.64
76762;BME280;65705;51.032;13.790;2023-09-19T02:50:51;99678.47;;;18.21;88.26
76762;BME280;65705;51.032;13.790;2023-09-19T02:53:17;99670.91;;;18.18;87.88
76762;BME280;65705;51.032;13.790;2023-09-19T02:55:44;99669.91;;;18.19;88.03
76762;BME280;65705;51.032;13.790;2023-09-19T02:58:10;99670.66;;;18.26;87.88
76762;BME280;65705;51.032;13.790;2023-09-19T03:00:38;99674.09;;;18.27;87.93
76762;BME280;65705;51.032;13.790;2023-09-19T03:03:04;99672.13;;;18.22;87.47
76762;BME280;65705;51.032;13.790;2023-09-19T03:05:32;99677.66;;;18.21;87.73
76762;BME280;65705;51.032;13.790;2023-09-19T03:07:58;99682.75;;;18.22;87.47
76762;BME280;65705;51.032;13.790;2023-09-19T03:10:26;99691.09;;;18.26;87.02
76762;BME280;65705;51.032;13.790;2023-09-19T03:12:53;99695.97;;;18.29;86.88
76762;BME280;65705;51.032;13.790;2023-09-19T03:15:19;99687.75;;;18.30;86.43
76762;BME280;65705;51.032;13.790;2023-09-19T03:17:49;99685.19;;;18.24;86.94
76762;BME280;65705;51.032;13.790;2023-09-19T03:20:19;99695.38;;;18.27;87.37
76762;BME280;65705;51.032;13.790;2023-09-19T03:22:47;99698.69;;;18.22;87.60
76762;BME280;65705;51.032;13.790;2023-09-19T03:25:15;99711.97;;;18.22;87.86
76762;BME280;65705;51.032;13.790;2023-09-19T03:27:45;99714.41;;;18.24;88.03
76762;BME280;65705;51.032;13.790;2023-09-19T03:30:13;99708.06;;;18.25;85.59
76762;BME280;65705;51.032;13.790;2023-09-19T03:32:45;99708.44;;;18.28;85.50
76762;BME280;65705;51.032;13.790;2023-09-19T03:35:12;99708.38;;;18.35;84.35
76762;BME280;65705;51.032;13.790;2023-09-19T03:37:41;99708.38;;;18.35;85.26
76762;BME280;65705;51.032;13.790;2023-09-19T03:40:08;99711.03;;;18.35;85.34
76762;BME280;65705;51.032;13.790;2023-09-19T03:42:42;99704.31;;;18.32;83.18
76762;BME280;65705;51.032;13.790;2023-09-19T03:45:11;99702.47;;;18.33;83.92
76762;BME280;65705;51.032;13.790;2023-09-19T03:47:39;99706.38;;;18.30;83.91
76762;BME280;65705;51.032;13.790;2023-09-19T03:50:06;99699.22;;;18.31;83.52
76762;BME280;65705;51.032;13.790;2023-09-19T03:52:34;99712.09;;;18.34;83.20
76762;BME280;65705;51.032;13.790;2023-09-19T03:55:00;99706.31;;;18.37;82.71
76762;BME280;65705;51.032;13.790;2023-09-19T03:57:28;99704.66;;;18.42;82.67
76762;BME280;65705;51.032;13.790;2023-09-19T03:59:54;99706.06;;;18.45;82.88
76762;BME280;65705;51.032;13.790;2023-09-19T04:02:21;99701.34;;;18.47;81.00
76762;BME280;65705;51.032;13.790;2023-09-19T04:04:51;99714.41;;;18.48;81.17
76762;BME280;65705;51.032;13.790;2023-09-19T04:07:18;99721.00;;;18.46;82.67
76762;BME280;65705;51.032;13.790;2023-09-19T04:09:48;99715.31;;;18.42;82.17
76762;BME280;65705;51.032;13.790;2023-09-19T04:12:14;99719.34;;;18.45;81.03
76762;BME280;65705;51.032;13.790;2023-09-19T04:14:42;99720.16;;;18.45;81.78
76762;BME280;65705;51.032;13.790;2023-09-19T04:17:09;99725.25;;;18.47;81.24
76762;BME280;65705;51.032;13.790;2023-09-19T04:19:35;99732.22;;;18.48;82.36
76762;BME280;65705;51.032;13.790;2023-09-19T04:22:02;99733.91;;;18.42;82.80
76762;BME280;65705;51.032;13.790;2023-09-19T04:24:28;99739.81;;;18.44;82.79
76762;BME280;65705;51.032;13.790;2023-09-19T04:26:54;99725.13;;;18.42;83.47
76762;BME280;65705;51.032;13.790;2023-09-19T04:29:19;99736.38;;;18.37;78.42
76762;BME280;65705;51.032;13.790;2023-09-19T04:31:45;99726.91;;;18.48;78.43
76762;BME280;65705;51.032;13.790;2023-09-19T04:34:12;99721.13;;;18.51;79.08
76762;BME280;65705;51.032;13.790;2023-09-19T04:36:41;99723.34;;;18.54;79.86
76762;BME280;65705;51.032;13.790;2023-09-19T04:39:07;99725.59;;;18.57;79.33
76762;BME280;65705;51.032;13.790;2023-09-19T04:41:33;99730.00;;;18.63;78.50
76762;BME280;65705;51.032;13.790;2023-09-19T04:44:00;99733.94;;;18.60;78.74
76762;BME280;65705;51.032;13.790;2023-09-19T04:46:25;99739.25;;;18.60;78.43
76762;BME280;65705;51.032;13.790;2023-09-19T04:48:52;99750.88;;;18.66;77.21
76762;BME280;65705;51.032;13.790;2023-09-19T04:51:18;99745.38;;;18.61;77.38
76762;BME280;65705;51.032;13.790;2023-09-19T04:53:46;99739.84;;;18.62;77.42
76762;BME280;65705;51.032;13.790;2023-09-19T04:56:12;99742.50;;;18.62;76.78
76762;BME280;65705;51.032;13.790;2023-09-19T04:58:38;99742.50;;;18.62;77.32
76762;BME280;65705;51.032;13.790;2023-09-19T05:01:04;99749.66;;;18.62;77.45
76762;BME280;65705;51.032;13.790;2023-09-19T05:03:30;99748.56;;;18.69;76.90
76762;BME280;65705;51.032;13.790;2023-09-19T05:05:56;99763.72;;;18.69;77.04
76762;BME280;65705;51.032;13.790;2023-09-19T05:08:22;99769.78;;;18.76;75.61
76762;BME280;65705;51.032;13.790;2023-09-19T05:10:48;99773.47;;;18.75;76.28
76762;BME280;65705;51.032;13.790;2023-09-19T05:13:14;99780.19;;;18.77;76.74
76762;BME280;65705;51.032;13.790;2023-09-19T05:15:40;99775.91;;;18.76;76.92
76762;BME280;65705;51.032;13.790;2023-09-19T05:18:06;99791.78;;;18.83;77.00
76762;BME280;65705;51.032;13.790;2023-09-19T05:20:32;99785.88;;;18.81;76.55
76762;BME280;65705;51.032;13.790;2023-09-19T05:23:03;99802.44;;;18.83;76.83
76762;BME280;65705;51.032;13.790;2023-09-19T05:25:31;99796.25;;;18.89;77.03
76762;BME280;65705;51.032;13.790;2023-09-19T05:28:00;99796.00;;;18.90;76.73
76762;BME280;65705;51.032;13.790;2023-09-19T05:30:29;99800.06;;;18.93;76.01
76762;BME280;65705;51.032;13.790;2023-09-19T05:32:56;99793.13;;;18.92;76.36
76762;BME280;65705;51.032;13.790;2023-09-19T05:35:23;99794.19;;;18.91;76.97
76762;BME280;65705;51.032;13.790;2023-09-19T05:37:53;99797.84;;;18.90;76.28
76762;BME280;65705;51.032;13.790;2023-09-19T05:40:20;99798.44;;;18.92;75.81
76762;BME280;65705;51.032;13.790;2023-09-19T05:42:47;99800.88;;;18.93;75.96
76762;BME280;65705;51.032;13.790;2023-09-19T05:45:13;99801.03;;;18.99;76.33
76762;BME280;65705;51.032;13.790;2023-09-19T05:47:40;99799.78;;;19.01;76.29
76762;BME280;65705;51.032;13.790;2023-09-19T05:50:09;99795.88;;;19.04;76.20
76762;BME280;65705;51.032;13.790;2023-09-19T05:52:35;99807.91;;;19.06;76.03
76762;BME280;65705;51.032;13.790;2023-09-19T05:55:06;99810.34;;;19.08;74.14
76762;BME280;65705;51.032;13.790;2023-09-19T05:57:36;99816.63;;;19.13;72.78
76762;BME280;65705;51.032;13.790;2023-09-19T06:00:06;99815.16;;;19.17;72.97
76762;BME280;65705;51.032;13.790;2023-09-19T06:02:37;99816.78;;;19.18;71.87
76762;BME280;65705;51.032;13.790;2023-09-19T06:05:07;99813.34;;;19.18;71.09
76762;BME280;65705;51.032;13.790;2023-09-19T06:07:37;99824.34;;;19.21;72.18
76762;BME280;65705;51.032;13.790;2023-09-19T06:10:03;99810.53;;;19.31;71.60
76762;BME280;65705;51.032;13.790;2023-09-19T06:12:31;99812.19;;;19.32;71.13
76762;BME280;65705;51.032;13.790;2023-09-19T06:15:00;99826.09;;;19.34;70.77
76762;BME280;65705;51.032;13.790;2023-09-19T06:17:26;99830.59;;;19.33;70.84
76762;BME280;65705;51.032;13.790;2023-09-19T06:19:53;99826.22;;;19.39;70.91
76762;BME280;65705;51.032;13.790;2023-09-19T06:22:19;99830.13;;;19.36;70.35
76762;BME280;65705;51.032;13.790;2023-09-19T06:24:45;99849.50;;;19.43;70.57
76762;BME280;65705;51.032;13.790;2023-09-19T06:27:12;99840.84;;;19.48;70.73
76762;BME280;65705;51.032;13.790;2023-09-19T06:29:39;99852.38;;;19.42;70.38
76762;BME280;65705;51.032;13.790;2023-09-19T06:32:08;99860.47;;;19.53;69.79
76762;BME280;65705;51.032;13.790;2023-09-19T06:34:37;99862.25;;;19.41;70.19
76762;BME280;65705;51.032;13.790;2023-09-19T06:37:04;99860.59;;;19.40;69.92
76762;BME280;65705;51.032;13.790;2023-09-19T06:39:31;99859.78;;;19.40;70.02
76762;BME280;65705;51.032;13.790;2023-09-19T06:41:58;99862.81;;;19.43;69.91
76762;BME280;65705;51.032;13.790;2023-09-19T06:44:24;99865.03;;;19.46;69.85
76762;BME280;65705;51.032;13.790;2023-09-19T06:46:50;99872.94;;;19.53;70.00
76762;BME280;65705;51.032;13.790;2023-09-19T06:49:19;99877.16;;;19.60;69.70
76762;BME280;65705;51.032;13.790;2023-09-19T06:51:45;99878.94;;;19.66;69.03
76762;BME280;65705;51.032;13.790;2023-09-19T06:54:11;99885.00;;;19.73;68.92
76762;BME280;65705;51.032;13.790;2023-09-19T06:56:37;99884.56;;;19.76;68.70
76762;BME280;65705;51.032;13.790;2023-09-19T06:59:03;99896.09;;;19.70;68.55
76762;BME280;65705;51.032;13.790;2023-09-19T07:01:31;99893.56;;;19.75;68.41
76762;BME280;65705;51.032;13.790;2023-09-19T07:03:57;99901.00;;;19.73;69.38
76762;BME280;65705;51.032;13.790;2023-09-19T07:06:23;99898.22;;;19.80;68.71
76762;BME280;65705;51.032;13.790;2023-09-19T07:08:49;99909.75;;;19.92;68.16
76762;BME280;65705;51.032;13.790;2023-09-19T07:11:15;99912.03;;;20.07;67.07
76762;BME280;65705;51.032;13.790;2023-09-19T07:13:42;99904.94;;;20.19;66.63
76762;BME280;65705;51.032;13.790;2023-09-19T07:16:08;99908.53;;;20.24;65.48
76762;BME280;65705;51.032;13.790;2023-09-19T07:18:36;99910.06;;;20.20;66.02
76762;BME280;65705;51.032;13.790;2023-09-19T07:21:02;99916.78;;;20.23;65.57
76762;BME280;65705;51.032;13.790;2023-09-19T07:23:30;99926.25;;;20.19;64.06
76762;BME280;65705;51.032;13.790;2023-09-19T07:26:01;99937.50;;;20.21;65.05
76762;BME280;65705;51.032;13.790;2023-09-19T07:28:27;99940.31;;;20.26;64.51
76762;BME280;65705;51.032;13.790;2023-09-19T07:30:54;99945.78;;;20.31;64.02
76762;BME280;65705;51.032;13.790;2023-09-19T07:33:20;99948.47;;;20.31;62.45
76762;BME280;65705;51.032;13.790;2023-09-19T07:35:47;99952.50;;;20.33;61.11
76762;BME280;65705;51.032;13.790;2023-09-19T07:38:16;99950.06;;;20.32;61.22
76762;BME280;65705;51.032;13.790;2023-09-19T07:40:43;99954.59;;;20.31;61.17
76762;BME280;65705;51.032;13.790;2023-09-19T07:43:09;99953.97;;;20.18;60.71
76762;BME280;65705;51.032;13.790;2023-09-19T07:45:35;99955.63;;;20.12;59.95
76762;BME280;65705;51.032;13.790;2023-09-19T07:48:02;99959.31;;;20.29;60.00
76762;BME280;65705;51.032;13.790;2023-09-19T07:50:34;99960.44;;;20.40;59.94
76762;BME280;65705;51.032;13.790;2023-09-19T07:53:02;99967.16;;;20.42;59.58
76762;BME280;65705;51.032;13.790;2023-09-19T07:55:30;99964.69;;;20.59;58.77
76762;BME280;65705;51.032;13.790;2023-09-19T07:57:56;99957.72;;;20.58;58.65
76762;BME280;65705;51.032;13.790;2023-09-19T08:00:23;99966.16;;;20.55;57.97
76762;BME280;65705;51.032;13.790;2023-09-19T08:02:49;99971.38;;;20.50;58.77
76762;BME280;65705;51.032;13.790;2023-09-19T08:05:17;99959.66;;;20.51;57.39
76762;BME280;65705;51.032;13.790;2023-09-19T08:07:45;99952.94;;;20.48;56.33
76762;BME280;65705;51.032;13.790;2023-09-19T08:10:15;99958.03;;;20.50;57.44
76762;BME280;65705;51.032;13.790;2023-09-19T08:12:42;99960.69;;;20.50;57.54
76762;BME280;65705;51.032;13.790;2023-09-19T08:15:17;99960.09;;;20.48;57.93
76762;BME280;65705;51.032;13.790;2023-09-19T08:17:46;99961.06;;;20.53;57.36
76762;BME280;65705;51.032;13.790;2023-09-19T08:20:12;99972.66;;;20.59;55.78
76762;BME280;65705;51.032;13.790;2023-09-19T08:22:49;99972.97;;;20.51;55.16
76762;BME280;65705;51.032;13.790;2023-09-19T08:25:18;99976.59;;;20.56;55.76
76762;BME280;65705;51.032;13.790;2023-09-19T08:27:47;99969.19;;;20.58;56.29
76762;BME280;65705;51.032;13.790;2023-09-19T08:30:15;99977.38;;;20.45;55.25
76762;BME280;65705;51.032;13.790;2023-09-19T08:32:42;99972.97;;;20.51;55.01
76762;BME280;65705;51.032;13.790;2023-09-19T08:35:11;99977.53;;;20.62;54.72
76762;BME280;65705;51.032;13.790;2023-09-19T08:37:40;99978.63;;;20.72;54.47
76762;BME280;65705;51.032;13.790;2023-09-19T08:40:06;99972.63;;;20.77;54.14
76762;BME280;65705;51.032;13.790;2023-09-19T08:42:51;99979.69;;;20.83;54.64
76762;BME280;65705;51.032;13.790;2023-09-19T08:45:17;99982.75;;;20.98;54.17
76762;BME280;65705;51.032;13.790;2023-09-19T08:47:53;99989.88;;;21.04;54.38
76762;BME280;65705;51.032;13.790;2023-09-19T08:50:28;99989.41;;;21.07;53.54
76762;BME280;65705;51.032;13.790;2023-09-19T08:53:01;99993.22;;;21.00;53.11
76762;BME280;65705;51.032;13.790;2023-09-19T08:55:28;99998.59;;;20.81;53.82
76762;BME280;65705;51.032;13.790;2023-09-19T08:58:20;100000.13;;;20.77;53.49
76762;BME280;65705;51.032;13.790;2023-09-19T09:00:50;100006.13;;;20.73;53.44
76762;BME280;65705;51.032;13.790;2023-09-19T09:03:18;100004.53;;;20.83;53.98
76762;BME280;65705;51.032;13.790;2023-09-19T09:05:46;99999.13;;;20.90;54.01
76762;BME280;65705;51.032;13.790;2023-09-19T09:08:13;100004.72;;;21.00;53.92
76762;BME280;65705;51.032;13.790;2023-09-19T09:10:39;99993.16;;;21.06;53.29
76762;BME280;65705;51.032;13.790;2023-09-19T09:13:06;100000.56;;;21.04;52.29
76762;BME280;65705;51.032;13.790;2023-09-19T09:15:36;100005.91;;;21.04;52.56
76762;BME280;65705;51.032;13.790;2023-09-19T09:18:02;100006.84;;;21.21;51.73
76762;BME280;65705;51.032;13.790;2023-09-19T09:20:30;100000.34;;;21.17;52.24
76762;BME280;65705;51.032;13.790;2023-09-19T09:22:56;99996.19;;;21.33;51.63
76762;BME280;65705;51.032;13.790;2023-09-19T09:25:54;99995.16;;;21.45;50.52
76762;BME280;65705;51.032;13.790;2023-09-19T09:28:26;100000.72;;;21.55;50.30
76762;BME280;65705;51.032;13.790;2023-09-19T09:30:54;99996.66;;;21.64;49.10
76762;BME280;65705;51.032;13.790;2023-09-19T09:33:20;100004.31;;;21.61;49.40
76762;BME280;65705;51.032;13.790;2023-09-19T09:35:50;100007.47;;;21.58;49.64
76762;BME280;65705;51.032;13.790;2023-09-19T09:38:21;100015.47;;;21.58;49.70
76762;BME280;65705;51.032;13.790;2023-09-19T09:40:52;100006.66;;;21.57;50.13
76762;BME280;65705;51.032;13.790;2023-09-19T09:43:37;100010.94;;;21.58;50.17
76762;BME280;65705;51.032;13.790;2023-09-19T09:46:15;100010.16;;;21.58;50.02
76762;BME280;65705;51.032;13.790;2023-09-19T09:48:58;100022.81;;;21.51;50.42
76762;BME280;65705;51.032;13.790;2023-09-19T09:51:49;100018.38;;;21.45;50.65
76762;BME280;65705;51.032;13.790;2023-09-19T09:54:26;100018.94;;;21.35;50.57
76762;BME280;65705;51.032;13.790;2023-09-19T09:57:10;100020.44;;;21.20;50.80
76762;BME280;65705;51.032;13.790;2023-09-19T10:02:17;100014.19;;;21.37;50.46
76762;BME280;65705;51.032;13.790;2023-09-19T10:04:55;100016.84;;;21.26;51.41
76762;BME280;65705;51.032;13.790;2023-09-19T10:07:36;100012.44;;;21.31;51.25
76762;BME280;65705;51.032;13.790;2023-09-19T10:10:07;100015.25;;;21.36;50.47
76762;BME280;65705;51.032;13.790;2023-09-19T10:12:43;100012.69;;;21.41;50.33
76762;BME280;65705;51.032;13.790;2023-09-19T10:15:11;100015.94;;;21.43;50.24
76762;BME280;65705;51.032;13.790;2023-09-19T10:17:44;100014.28;;;21.42;49.87
76762;BME280;65705;51.032;13.790;2023-09-19T10:20:17;100012.31;;;21.49;49.96
76762;BME280;65705;51.032;13.790;2023-09-19T10:23:06;100013.84;;;21.57;50.37
76762;BME280;65705;51.032;13.790;2023-09-19T10:25:43;100016.06;;;21.71;50.41
76762;BME280;65705;51.032;13.790;2023-09-19T10:28:13;100019.00;;;21.81;50.75
76762;BME280;65705;51.032;13.790;2023-09-19T10:30:44;100018.88;;;21.88;50.03
76762;BME280;65705;51.032;13.790;2023-09-19T10:33:12;100015.25;;;21.94;49.52
76762;BME280;65705;51.032;13.790;2023-09-19T10:35:41;100020.03;;;21.92;49.38
76762;BME280;65705;51.032;13.790;2023-09-19T10:38:11;100025.03;;;21.88;49.09
76762;BME280;65705;51.032;13.790;2023-09-19T10:40:40;100014.34;;;21.88;49.28
76762;BME280;65705;51.032;13.790;2023-09-19T10:43:11;100022.00;;;21.96;49.01
76762;BME280;65705;51.032;13.790;2023-09-19T10:45:38;100016.88;;;21.95;48.29
76762;BME280;65705;51.032;13.790;2023-09-19T10:48:06;100015.72;;;22.03;48.08
76762;BME280;65705;51.032;13.790;2023-09-19T10:50:41;100020.72;;;21.99;47.83
76762;BME280;65705;51.032;13.790;2023-09-19T10:53:08;100018.25;;;22.09;48.05
76762;BME280;65705;51.032;13.790;2023-09-19T10:55:36;100028.25;;;22.14;47.44
76762;BME280;65705;51.032;13.790;2023-09-19T10:58:04;100017.91;;;22.17;46.05
76762;BME280;65705;51.032;13.790;2023-09-19T11:00:55;100016.69;;;22.25;45.26
76762;BME280;65705;51.032;13.790;2023-09-19T11:03:22;100015.06;;;22.35;45.57
76762;BME280;65705;51.032;13.790;2023-09-19T11:06:14;100022.97;;;22.30;45.07
76762;BME280;65705;51.032;13.790;2023-09-19T11:09:00;100017.25;;;22.38;45.68
76762;BME280;65705;51.032;13.790;2023-09-19T11:30:44;100012.94;;;22.77;40.59
76762;BME280;65705;51.032;13.790;2023-09-19T11:36:04;99998.84;;;22.81;39.36
76762;BME280;65705;51.032;13.790;2023-09-19T11:46:51;100004.38;;;23.08;38.99
76762;BME280;65705;51.032;13.790;2023-09-19T11:49:18;100009.91;;;23.02;38.52
76762;BME280;65705;51.032;13.790;2023-09-19T11:51:46;99997.38;;;23.07;39.41
76762;BME280;65705;51.032;13.790;2023-09-19T11:54:16;100012.00;;;23.16;39.14
76762;BME280;65705;51.032;13.790;2023-09-19T11:56:45;100018.13;;;23.28;39.21
76762;BME280;65705;51.032;13.790;2023-09-19T11:59:20;100014.97;;;23.31;38.38
76762;BME280;65705;51.032;13.790;2023-09-19T12:01:51;100007.75;;;23.32;38.73
76762;BME280;65705;51.032;13.790;2023-09-19T12:07:10;100005.72;;;23.39;39.73
76762;BME280;65705;51.032;13.790;2023-09-19T12:09:48;100014.66;;;23.44;39.70
76762;BME280;65705;51.032;13.790;2023-09-19T12:12:25;100003.03;;;23.39;40.13
76762;BME280;65705;51.032;13.790;2023-09-19T12:14:58;100007.66;;;23.43;40.28
76762;BME280;65705;51.032;13.790;2023-09-19T12:17:40;100011.94;;;23.28;39.94
76762;BME280;65705;51.032;13.790;2023-09-19T12:20:12;99996.88;;;23.38;40.70
76762;BME280;65705;51.032;13.790;2023-09-19T12:22:43;100007.94;;;22.97;41.65
76762;BME280;65705;51.032;13.790;2023-09-19T12:25:10;100003.00;;;23.06;40.79
76762;BME280;65705;51.032;13.790;2023-09-19T12:27:48;100002.44;;;23.20;40.60
76762;BME280;65705;51.032;13.790;2023-09-19T12:30:15;100010.78;;;23.07;42.71
76762;BME280;65705;51.032;13.790;2023-09-19T12:32:43;100013.66;;;23.17;42.71
76762;BME280;65705;51.032;13.790;2023-09-19T12:35:10;100002.75;;;23.24;43.12
76762;BME280;65705;51.032;13.790;2023-09-19T12:37:44;100008.22;;;23.29;43.72
76762;BME280;65705;51.032;13.790;2023-09-19T12:40:13;100008.28;;;23.17;42.97
76762;BME280;65705;51.032;13.790;2023-09-19T12:42:49;100015.44;;;23.12;43.16
76762;BME280;65705;51.032;13.790;2023-09-19T12:45:15;100003.69;;;22.84;43.47
76762;BME280;65705;51.032;13.790;2023-09-19T12:51:11;100001.59;;;22.86;43.41
76762;BME280;65705;51.032;13.790;2023-09-19T12:53:43;100002.47;;;22.75;44.02
76762;BME280;65705;51.032;13.790;2023-09-19T12:56:12;99998.28;;;22.96;43.43
76762;BME280;65705;51.032;13.790;2023-09-19T12:58:51;99999.00;;;22.91;43.27
76762;BME280;65705;51.032;13.790;2023-09-19T13:01:20;100003.88;;;22.94;42.96
76762;BME280;65705;51.032;13.790;2023-09-19T13:03:46;99999.16;;;22.85;42.64
76762;BME280;65705;51.032;13.790;2023-09-19T13:06:35;100013.38;;;23.02;42.89
76762;BME280;65705;51.032;13.790;2023-09-19T13:09:10;100001.31;;;22.99;43.03
76762;BME280;65705;51.032;13.790;2023-09-19T13:11:37;100000.56;;;23.04;42.71
76762;BME280;65705;51.032;13.790;2023-09-19T13:17:04;99993.44;;;23.26;42.39
76762;BME280;65705;51.032;13.790;2023-09-19T13:19:36;99997.81;;;22.99;42.03
76762;BME280;65705;51.032;13.790;2023-09-19T13:22:03;99994.63;;;23.02;42.53
76762;BME280;65705;51.032;13.790;2023-09-19T13:24:29;99997.63;;;22.89;42.67
76762;BME280;65705;51.032;13.790;2023-09-19T13:26:56;99998.94;;;23.03;42.44
76762;BME280;65705;51.032;13.790;2023-09-19T13:29:23;99991.25;;;23.23;42.19
76762;BME280;65705;51.032;13.790;2023-09-19T13:31:50;100002.97;;;23.34;42.80
76762;BME280;65705;51.032;13.790;2023-09-19T13:34:19;99996.94;;;23.27;42.07
76762;BME280;65705;51.032;13.790;2023-09-19T13:36:46;100003.69;;;23.29;41.66
76762;BME280;65705;51.032;13.790;2023-09-19T13:39:16;99991.59;;;23.27;41.44
76762;BME280;65705;51.032;13.790;2023-09-19T13:41:44;99990.56;;;23.16;41.25
76762;BME280;65705;51.032;13.790;2023-09-19T13:44:10;99985.09;;;23.23;41.45
76762;BME280;65705;51.032;13.790;2023-09-19T13:46:36;99987.25;;;23.26;41.82
76762;BME280;65705;51.032;13.790;2023-09-19T13:49:02;99993.38;;;23.38;41.17
76762;BME280;65705;51.032;13.790;2023-09-19T13:51:31;99990.94;;;23.53;41.59
76762;BME280;65705;51.032;13.790;2023-09-19T13:53:57;99984.47;;;23.70;43.90